Flight Track Log - Related Links

Times and Time Zones

All times are in EDT time to prevent confusion due to time zone crossing. See the UAL4380 flight status page for this flight to view local times or setup timezone preferences in your user account.

Time Position Orientation Groundspeed Altitude Reporting Facility
EDT Latitude Longitude Course Direction KTS MPH feet Rate Location/Type
Mon 19:31:04 33.5553 -86.7733 231° Southwest 156 180 1,300  Level Atlanta Center
Mon 19:31:40 33.5397 -86.8078 242° Southwest 197 227 2,600 1,898 Climbing Atlanta Center
Mon 19:32:42 33.5092 -86.8667 238° Southwest 243 280 4,400 2,066 Climbing Atlanta Center
Mon 19:33:42 33.4539 -86.9094 213° Southwest 249 287 6,800 2,450 Climbing Atlanta Center
Mon 19:34:00 33.3165 -87.0936 230° Southwest  Level FlightAware Approximate
Mon 19:34:42 33.4025 -86.9650 222° Southwest 255 293 9,300  Level Atlanta Center
Mon 19:35:00 33.2581 -87.1796 231° Southwest  Level FlightAware Approximate
Mon 19:35:42 33.3550 -87.0331 230° Southwest 261 300 11,000  Level Atlanta Center
Mon 19:36:00 33.2003 -87.2663 231° Southwest  Level FlightAware Approximate
Mon 19:36:42 33.3008 -87.1133 231° Southwest 287 330 11,900  Level Atlanta Center
Mon 19:37:42 33.2403 -87.2031 231° Southwest 323 372 13,000 1,100 Climbing Atlanta Center
Mon 19:38:42 33.1772 -87.2950 231° Southwest 347 399 14,100 1,100 Climbing Atlanta Center
Mon 19:39:42 33.1119 -87.3917 231° Southwest 369 425 15,200 1,200 Climbing Atlanta Center
Mon 19:40:42 33.0469 -87.4833 230° Southwest 369 425 16,500 1,300 Climbing Atlanta Center
Mon 19:41:42 32.9728 -87.5894 230° Southwest 369 425 17,800 1,250 Climbing Atlanta Center
Mon 19:42:42 32.9094 -87.6858 232° Southwest 374 430 19,000 1,164 Climbing Atlanta Center
Mon 19:43:56 32.8311 -87.7936 229° Southwest 359 413 20,400 1,209 Climbing Memphis Center
Mon 19:44:56 32.7644 -87.8942 232° Southwest 371 427 21,700 1,250 Climbing Memphis Center
Mon 19:45:56 32.6975 -87.9922 231° Southwest 383 441 22,900 650 Climbing Memphis Center
Mon 19:46:56 32.6431 -88.1022 240° Southwest 388 447 23,000 550 Climbing Memphis Center
Mon 19:47:56 32.6056 -88.2292 251° West 393 452 24,000 1,250 Climbing Memphis Center
Mon 19:48:56 32.5722 -88.3481 252° West 398 458 25,500 1,600 Climbing Memphis Center
Mon 19:49:56 32.5325 -88.4797 250° West 393 452 27,200 1,600 Climbing Memphis Center
Mon 19:50:56 32.4986 -88.5961 251° West 386 444 28,700 1,400 Climbing Memphis Center
Mon 19:51:56 32.4667 -88.7050 251° West 376 433 30,000 700 Climbing Memphis Center
Mon 19:52:56 32.4308 -88.8239 250° West 376 433 30,100 500 Climbing Memphis Center
Mon 19:53:56 32.3925 -88.9450 249° West 381 438 31,000 900 Climbing Memphis Center
Mon 19:54:56 32.3542 -89.0711 250° West 400 460 31,900 950 Climbing Memphis Center
Mon 19:55:56 32.3178 -89.1969 251° West 400 460 32,900 950 Climbing Memphis Center
Mon 19:56:56 32.2792 -89.3203 250° West 405 466 33,800 550 Climbing Memphis Center
Mon 19:57:56 32.2425 -89.4411 250° West 405 466 34,000 100 Climbing Memphis Center
Mon 19:58:56 32.2039 -89.5619 249° West 405 466 34,000  Level Memphis Center
Mon 19:59:56 32.1669 -89.6800 250° West 405 466 34,000  Level Memphis Center
Mon 20:00:56 32.1319 -89.8006 251° West 400 460 34,000  Level Memphis Center
Mon 20:01:56 32.0950 -89.9183 250° West 389 448 34,000  Level Memphis Center
Mon 20:02:56 32.0578 -90.0386 250° West 389 448 34,000  Level Memphis Center
Mon 20:03:56 32.0183 -90.1614 249° West 389 448 34,000  Level Memphis Center
Mon 20:04:56 31.9808 -90.2814 250° West 394 453 34,000  Level Memphis Center
Mon 20:05:56 31.9433 -90.4014 250° West 394 453 34,000  Level Memphis Center
Mon 20:07:48 31.8756 -90.6139 249° West 394 453 34,000  Level Houston Center
Mon 20:08:50 31.8361 -90.7350 249° West 396 456 34,000  Level Houston Center
Mon 20:09:51 31.7994 -90.8533 250° West 391 450 34,000  Level Houston Center
Mon 20:10:53 31.7586 -90.9761 249° West 399 459 34,000  Level Houston Center
Mon 20:11:55 31.7019 -91.1108 244° Southwest 392 451 34,000  Level Houston Center
Mon 20:12:57 31.6519 -91.2247 243° Southwest 389 448 34,000  Level Houston Center
Mon 20:13:59 31.6003 -91.3378 242° Southwest 391 450 34,000  Level Houston Center
Mon 20:15:01 31.5497 -91.4517 243° Southwest 393 452 34,000  Level Houston Center
Mon 20:16:02 31.4983 -91.5656 242° Southwest 394 453 34,000  Level Houston Center
Mon 20:17:04 31.4475 -91.6783 242° Southwest 394 453 34,000  Level Houston Center
Mon 20:18:06 31.3872 -91.8156 243° Southwest 394 453 34,000  Level Houston Center
Mon 20:19:08 31.3347 -91.9286 241° Southwest 394 453 34,000  Level Houston Center
Mon 20:20:10 31.2842 -92.0389 242° Southwest 394 453 34,000  Level Houston Center
Mon 20:21:12 31.2311 -92.1508 241° Southwest 394 453 34,000  Level Houston Center
Mon 20:22:14 31.1800 -92.2642 242° Southwest 394 453 34,000  Level Houston Center
Mon 20:23:16 31.1283 -92.3775 242° Southwest 396 456 34,000  Level Houston Center
Mon 20:24:17 31.0767 -92.4911 242° Southwest 398 458 34,000  Level Houston Center
Mon 20:25:19 31.0139 -92.6275 242° Southwest 399 459 34,000  Level Houston Center
Mon 20:26:21 30.9669 -92.7286 242° Southwest 399 459 34,000  Level Houston Center
Mon 20:27:23 30.9039 -92.8667 242° Southwest 401 461 34,000  Level Houston Center
Mon 20:28:25 30.8561 -92.9692 242° Southwest 400 460 34,000  Level Houston Center
Mon 20:29:27 30.8036 -93.0844 242° Southwest 403 464 34,000  Level Houston Center
Mon 20:30:28 30.7283 -93.1789 227° Southwest 412 474 34,000 -49 Level Houston Center
Mon 20:31:30 30.5897 -93.2017 188° South 423 487 33,900 -677 Descending Houston Center
Mon 20:32:32 30.4778 -93.2344 194° South 418 481 32,600 -1,306 Descending Houston Center
Mon 20:33:34 30.4086 -93.3356 232° Southwest 405 466 31,200 -1,306 Descending Houston Center
Mon 20:34:36 30.3958 -93.4758 264° West 406 467 29,900 -1,355 Descending Houston Center
Mon 20:35:38 30.3711 -93.6083 258° West 406 467 28,400 -1,355 Descending Houston Center
Mon 20:36:40 30.3422 -93.7336 255° West 410 472 27,100 -1,317 Descending Houston Center
Mon 20:37:41 30.3133 -93.8608 255° West 411 473 25,700 -1,317 Descending Houston Center
Mon 20:38:43 30.2678 -93.9789 246° West 410 472 24,400 -1,306 Descending Houston Center
Mon 20:39:45 30.2003 -94.0792 232° Southwest 398 458 23,000 -1,355 Descending Houston Center
Mon 20:40:47 30.1414 -94.1700 233° Southwest 360 414 21,600 -2,182 Descending Houston Center
Mon 20:41:13 30.1369 -94.2322 265° West 330 380 19,800 -4,355 Descending Houston Center
Mon 20:41:49 30.1608 -94.2911 295° West 336 387 17,100 -4,347 Descending Houston Center
Mon 20:42:51 30.1928 -94.3914 290° West 335 386 12,700 -3,435 Descending Houston Center
Mon 20:43:53 30.1750 -94.4914 258° West 320 368 10,000 -1,317 Descending Houston Center
Mon 20:44:54 30.1578 -94.5936 259° West 308 354 10,000  Level Houston Center
Mon 20:45:56 30.1414 -94.6906 259° West 307 353 10,000 -242 Level Houston Center
Mon 20:46:58 30.1267 -94.7822 260° West 294 338 9,500 -1,279 Descending Houston Center
Mon 20:47:58 30.1089 -94.8717 257° West 259 298 7,400 -1,672 Descending Houston Center
Mon 20:49:00 30.1058 -94.9517 267° West 269 310 6,100 -683 Descending Houston Center
Mon 20:50:01 30.1056 -95.0386 270° West 272 313 6,000 -49 Descending Houston Center
Mon 20:51:02 30.1064 -95.1353 271° West 280 322 6,000  Level Houston Center
Mon 20:52:04 30.1058 -95.2222 270° West 270 311 6,000  Level Houston Center
Mon 20:53:09 30.1072 -95.3064 271° West 267 307 6,000 -98 Level Houston Center
Mon 20:54:06 30.1056 -95.4011 269° West 278 320 5,800 -655 Descending Houston Center
Mon 20:55:08 30.1069 -95.4853 271° West 258 297 4,700 -1,172 Descending Houston Center
Mon 20:56:14 30.1072 -95.5594 270° West 257 296 3,300 -803 Descending Houston Center
Mon 20:57:15 30.1067 -95.6547 270° West 253 291 3,000 -146 Descending Houston Center
Mon 20:58:17 30.0953 -95.7208 259° West 234 269 3,000  Level Houston Center
Mon 20:59:13 30.0506 -95.7478 208° Southwest 176 203 3,000  Level Houston Center
Mon 21:00:20 30.0133 -95.7283 156° South 187 215 3,000  Level Houston Center
Mon 21:01:15 30.0061 -95.6711 98° East 181 208 3,000  Level Houston Center
Mon 21:02:17 30.0069 -95.6108 89° East 186 214 3,000  Level Houston Center
Mon 21:03:25 30.0072 -95.5542 90° East 183 211 3,000 -295 Level Houston Center
Mon 21:04:19 30.0067 -95.4925 91° East 181 208 2,400 -667 Descending Houston Center

Login

Don't have an account? Register now (free) for customized features, flight alerts, and more!